sensor_id;sensor_type;location;lat;lon;timestamp;temperature;humidity
30280;DHT22;17097;50.916;5.344;2022-08-03T00:01:58;24.10;99.90
30280;DHT22;17097;50.916;5.344;2022-08-03T00:04:24;24.10;99.90
30280;DHT22;17097;50.916;5.344;2022-08-03T00:06:49;24.10;99.90
30280;DHT22;17097;50.916;5.344;2022-08-03T00:09:15;24.10;99.90
30280;DHT22;17097;50.916;5.344;2022-08-03T00:11:41;24.00;99.90
30280;DHT22;17097;50.916;5.344;2022-08-03T00:14:07;23.90;99.90
30280;DHT22;17097;50.916;5.344;2022-08-03T00:16:33;23.90;99.90
30280;DHT22;17097;50.916;5.344;2022-08-03T00:18:59;23.90;99.90
30280;DHT22;17097;50.916;5.344;2022-08-03T00:21:25;23.90;99.90
30280;DHT22;17097;50.916;5.344;2022-08-03T00:23:50;23.80;99.90
30280;DHT22;17097;50.916;5.344;2022-08-03T00:26:16;23.80;99.90
30280;DHT22;17097;50.916;5.344;2022-08-03T00:28:42;23.80;99.90
30280;DHT22;17097;50.916;5.344;2022-08-03T00:31:07;23.70;99.90
30280;DHT22;17097;50.916;5.344;2022-08-03T00:33:33;23.60;99.90
30280;DHT22;17097;50.916;5.344;2022-08-03T00:35:59;23.60;99.90
30280;DHT22;17097;50.916;5.344;2022-08-03T00:38:24;23.50;99.90
30280;DHT22;17097;50.916;5.344;2022-08-03T00:40:50;23.60;99.90
30280;DHT22;17097;50.916;5.344;2022-08-03T00:43:16;23.60;99.90
30280;DHT22;17097;50.916;5.344;2022-08-03T00:45:42;23.50;99.90
30280;DHT22;17097;50.916;5.344;2022-08-03T00:48:09;23.40;99.90
30280;DHT22;17097;50.916;5.344;2022-08-03T00:50:39;23.40;99.90
30280;DHT22;17097;50.916;5.344;2022-08-03T00:53:06;23.30;99.90
30280;DHT22;17097;50.916;5.344;2022-08-03T00:55:34;23.20;99.90
30280;DHT22;17097;50.916;5.344;2022-08-03T00:58:01;23.20;99.90
30280;DHT22;17097;50.916;5.344;2022-08-03T01:00:32;23.20;99.90
30280;DHT22;17097;50.916;5.344;2022-08-03T01:03:00;23.20;99.90
30280;DHT22;17097;50.916;5.344;2022-08-03T01:05:25;23.10;99.90
30280;DHT22;17097;50.916;5.344;2022-08-03T01:08:43;23.20;99.90
30280;DHT22;17097;50.916;5.344;2022-08-03T01:11:39;23.10;99.90
30280;DHT22;17097;50.916;5.344;2022-08-03T01:14:08;23.10;99.90
30280;DHT22;17097;50.916;5.344;2022-08-03T01:16:43;23.10;99.90
30280;DHT22;17097;50.916;5.344;2022-08-03T01:25:23;23.00;99.90
30280;DHT22;17097;50.916;5.344;2022-08-03T01:27:22;23.00;99.90
30280;DHT22;17097;50.916;5.344;2022-08-03T01:29:58;22.90;99.90
30280;DHT22;17097;50.916;5.344;2022-08-03T01:32:34;22.90;99.90
30280;DHT22;17097;50.916;5.344;2022-08-03T01:35:06;22.80;99.90
30280;DHT22;17097;50.916;5.344;2022-08-03T01:37:46;22.80;99.90
30280;DHT22;17097;50.916;5.344;2022-08-03T01:40:14;22.80;99.90
30280;DHT22;17097;50.916;5.344;2022-08-03T01:42:41;22.70;99.90
30280;DHT22;17097;50.916;5.344;2022-08-03T01:45:11;22.80;99.90
30280;DHT22;17097;50.916;5.344;2022-08-03T01:47:38;22.70;99.90
30280;DHT22;17097;50.916;5.344;2022-08-03T01:50:05;22.60;99.90
30280;DHT22;17097;50.916;5.344;2022-08-03T01:52:31;22.60;99.90
30280;DHT22;17097;50.916;5.344;2022-08-03T01:54:58;22.60;99.90
30280;DHT22;17097;50.916;5.344;2022-08-03T01:57:26;22.50;99.90
30280;DHT22;17097;50.916;5.344;2022-08-03T01:59:54;22.50;99.90
30280;DHT22;17097;50.916;5.344;2022-08-03T02:02:20;22.50;99.90
30280;DHT22;17097;50.916;5.344;2022-08-03T02:04:48;22.50;99.90
30280;DHT22;17097;50.916;5.344;2022-08-03T02:07:14;22.40;99.90
30280;DHT22;17097;50.916;5.344;2022-08-03T02:09:43;22.40;99.90
30280;DHT22;17097;50.916;5.344;2022-08-03T02:12:10;22.30;99.90
30280;DHT22;17097;50.916;5.344;2022-08-03T02:14:37;22.30;99.90
30280;DHT22;17097;50.916;5.344;2022-08-03T02:17:07;22.30;99.90
30280;DHT22;17097;50.916;5.344;2022-08-03T02:19:34;22.30;99.90
30280;DHT22;17097;50.916;5.344;2022-08-03T02:22:02;22.30;99.90
30280;DHT22;17097;50.916;5.344;2022-08-03T02:24:30;22.30;99.90
30280;DHT22;17097;50.916;5.344;2022-08-03T02:26:57;22.30;99.90
30280;DHT22;17097;50.916;5.344;2022-08-03T02:29:25;22.30;99.90
30280;DHT22;17097;50.916;5.344;2022-08-03T02:31:54;22.20;99.90
30280;DHT22;17097;50.916;5.344;2022-08-03T02:34:23;22.10;99.90
30280;DHT22;17097;50.916;5.344;2022-08-03T02:36:52;22.10;99.90
30280;DHT22;17097;50.916;5.344;2022-08-03T02:39:20;22.10;99.90
30280;DHT22;17097;50.916;5.344;2022-08-03T02:41:51;22.00;99.90
30280;DHT22;17097;50.916;5.344;2022-08-03T02:44:23;22.00;99.90
30280;DHT22;17097;50.916;5.344;2022-08-03T02:46:54;22.00;99.90
30280;DHT22;17097;50.916;5.344;2022-08-03T02:49:22;22.00;99.90
30280;DHT22;17097;50.916;5.344;2022-08-03T02:51:51;22.00;99.90
30280;DHT22;17097;50.916;5.344;2022-08-03T02:54:18;22.00;99.90
30280;DHT22;17097;50.916;5.344;2022-08-03T02:56:45;21.90;99.90
30280;DHT22;17097;50.916;5.344;2022-08-03T02:59:13;22.00;99.90
30280;DHT22;17097;50.916;5.344;2022-08-03T03:01:39;21.90;99.90
30280;DHT22;17097;50.916;5.344;2022-08-03T03:04:06;21.90;99.90
30280;DHT22;17097;50.916;5.344;2022-08-03T03:06:32;21.90;99.90
30280;DHT22;17097;50.916;5.344;2022-08-03T03:08:59;21.90;99.90
30280;DHT22;17097;50.916;5.344;2022-08-03T03:11:25;21.80;99.90
30280;DHT22;17097;50.916;5.344;2022-08-03T03:13:52;21.90;99.90
30280;DHT22;17097;50.916;5.344;2022-08-03T03:16:20;21.90;99.90
30280;DHT22;17097;50.916;5.344;2022-08-03T03:18:47;21.90;99.90
30280;DHT22;17097;50.916;5.344;2022-08-03T03:21:16;22.00;99.90
30280;DHT22;17097;50.916;5.344;2022-08-03T03:23:42;21.90;99.90
30280;DHT22;17097;50.916;5.344;2022-08-03T03:26:08;21.90;99.90
30280;DHT22;17097;50.916;5.344;2022-08-03T03:28:35;21.90;99.90
30280;DHT22;17097;50.916;5.344;2022-08-03T03:31:05;22.10;99.90
30280;DHT22;17097;50.916;5.344;2022-08-03T03:33:33;21.90;99.90
30280;DHT22;17097;50.916;5.344;2022-08-03T03:35:58;21.80;99.90
30280;DHT22;17097;50.916;5.344;2022-08-03T03:38:24;21.80;99.90
30280;DHT22;17097;50.916;5.344;2022-08-03T03:40:50;21.80;99.90
30280;DHT22;17097;50.916;5.344;2022-08-03T03:43:16;21.70;99.90
30280;DHT22;17097;50.916;5.344;2022-08-03T03:45:43;21.80;99.90
30280;DHT22;17097;50.916;5.344;2022-08-03T03:48:10;21.80;99.90
30280;DHT22;17097;50.916;5.344;2022-08-03T03:50:36;21.80;99.90
30280;DHT22;17097;50.916;5.344;2022-08-03T03:53:08;21.80;99.90
30280;DHT22;17097;50.916;5.344;2022-08-03T03:55:34;21.70;99.90
30280;DHT22;17097;50.916;5.344;2022-08-03T03:58:00;21.70;99.90
30280;DHT22;17097;50.916;5.344;2022-08-03T04:00:26;21.70;99.90
30280;DHT22;17097;50.916;5.344;2022-08-03T04:02:51;21.60;99.90
30280;DHT22;17097;50.916;5.344;2022-08-03T04:05:17;21.60;99.90
30280;DHT22;17097;50.916;5.344;2022-08-03T04:08:06;21.60;99.90
30280;DHT22;17097;50.916;5.344;2022-08-03T04:13:50;21.60;99.90
30280;DHT22;17097;50.916;5.344;2022-08-03T04:16:18;21.60;99.90
30280;DHT22;17097;50.916;5.344;2022-08-03T04:18:48;21.60;99.90
30280;DHT22;17097;50.916;5.344;2022-08-03T04:21:17;21.60;99.90
30280;DHT22;17097;50.916;5.344;2022-08-03T04:23:46;21.60;99.90
30280;DHT22;17097;50.916;5.344;2022-08-03T04:26:15;21.60;99.90
30280;DHT22;17097;50.916;5.344;2022-08-03T04:28:44;21.70;99.90
30280;DHT22;17097;50.916;5.344;2022-08-03T04:31:11;21.70;99.90
30280;DHT22;17097;50.916;5.344;2022-08-03T04:33:38;21.60;99.90
30280;DHT22;17097;50.916;5.344;2022-08-03T04:36:06;21.60;99.90
30280;DHT22;17097;50.916;5.344;2022-08-03T04:38:37;21.60;99.90
30280;DHT22;17097;50.916;5.344;2022-08-03T04:41:04;21.60;99.90
30280;DHT22;17097;50.916;5.344;2022-08-03T04:43:32;21.60;99.90
30280;DHT22;17097;50.916;5.344;2022-08-03T04:46:00;21.60;99.90
30280;DHT22;17097;50.916;5.344;2022-08-03T04:48:26;21.60;99.90
30280;DHT22;17097;50.916;5.344;2022-08-03T04:50:52;21.60;99.90
30280;DHT22;17097;50.916;5.344;2022-08-03T04:53:18;21.60;99.90
30280;DHT22;17097;50.916;5.344;2022-08-03T04:55:44;21.60;99.90
30280;DHT22;17097;50.916;5.344;2022-08-03T04:58:09;21.60;99.90
30280;DHT22;17097;50.916;5.344;2022-08-03T05:00:36;21.70;99.90
30280;DHT22;17097;50.916;5.344;2022-08-03T05:03:02;21.60;99.90
30280;DHT22;17097;50.916;5.344;2022-08-03T05:05:28;21.60;99.90
30280;DHT22;17097;50.916;5.344;2022-08-03T05:07:53;21.70;99.90
30280;DHT22;17097;50.916;5.344;2022-08-03T05:10:20;21.60;99.90
30280;DHT22;17097;50.916;5.344;2022-08-03T05:12:47;21.70;99.90
30280;DHT22;17097;50.916;5.344;2022-08-03T05:15:13;21.70;99.90
30280;DHT22;17097;50.916;5.344;2022-08-03T05:17:40;21.70;99.90
30280;DHT22;17097;50.916;5.344;2022-08-03T05:20:06;21.70;99.90
30280;DHT22;17097;50.916;5.344;2022-08-03T05:22:32;21.80;99.90
30280;DHT22;17097;50.916;5.344;2022-08-03T05:24:57;21.80;99.90
30280;DHT22;17097;50.916;5.344;2022-08-03T05:27:24;21.80;99.90
30280;DHT22;17097;50.916;5.344;2022-08-03T05:29:50;21.80;99.90
30280;DHT22;17097;50.916;5.344;2022-08-03T05:32:16;21.90;99.90
30280;DHT22;17097;50.916;5.344;2022-08-03T05:34:42;22.00;99.90
30280;DHT22;17097;50.916;5.344;2022-08-03T05:37:08;22.00;99.90
30280;DHT22;17097;50.916;5.344;2022-08-03T05:39:34;22.00;99.90
30280;DHT22;17097;50.916;5.344;2022-08-03T05:42:00;22.00;99.90
30280;DHT22;17097;50.916;5.344;2022-08-03T05:44:26;22.10;99.90
30280;DHT22;17097;50.916;5.344;2022-08-03T05:46:52;22.20;99.90
30280;DHT22;17097;50.916;5.344;2022-08-03T05:49:18;22.20;99.90
30280;DHT22;17097;50.916;5.344;2022-08-03T05:51:44;22.40;99.90
30280;DHT22;17097;50.916;5.344;2022-08-03T05:54:10;22.40;99.90
30280;DHT22;17097;50.916;5.344;2022-08-03T05:56:36;22.60;99.90
30280;DHT22;17097;50.916;5.344;2022-08-03T05:59:02;22.70;99.90
30280;DHT22;17097;50.916;5.344;2022-08-03T06:01:28;22.80;99.90
30280;DHT22;17097;50.916;5.344;2022-08-03T06:03:56;22.80;99.90
30280;DHT22;17097;50.916;5.344;2022-08-03T06:06:22;22.80;99.90
30280;DHT22;17097;50.916;5.344;2022-08-03T06:08:48;22.90;99.90
30280;DHT22;17097;50.916;5.344;2022-08-03T06:11:13;22.90;99.90
30280;DHT22;17097;50.916;5.344;2022-08-03T06:13:39;22.90;99.90
30280;DHT22;17097;50.916;5.344;2022-08-03T06:16:06;23.00;99.90
30280;DHT22;17097;50.916;5.344;2022-08-03T06:18:31;23.10;99.90
30280;DHT22;17097;50.916;5.344;2022-08-03T06:20:57;23.00;99.90
30280;DHT22;17097;50.916;5.344;2022-08-03T06:23:23;23.10;99.90
30280;DHT22;17097;50.916;5.344;2022-08-03T06:25:48;23.20;99.90
30280;DHT22;17097;50.916;5.344;2022-08-03T06:28:14;23.20;99.90
30280;DHT22;17097;50.916;5.344;2022-08-03T06:30:40;23.30;99.90
30280;DHT22;17097;50.916;5.344;2022-08-03T06:33:06;23.30;99.90
30280;DHT22;17097;50.916;5.344;2022-08-03T06:35:32;23.40;99.90
30280;DHT22;17097;50.916;5.344;2022-08-03T06:37:58;23.40;99.90
30280;DHT22;17097;50.916;5.344;2022-08-03T06:40:24;23.50;99.90
30280;DHT22;17097;50.916;5.344;2022-08-03T06:43:00;23.60;99.90
30280;DHT22;17097;50.916;5.344;2022-08-03T06:45:27;23.70;99.90
30280;DHT22;17097;50.916;5.344;2022-08-03T06:48:19;23.80;99.90
30280;DHT22;17097;50.916;5.344;2022-08-03T06:50:45;24.00;99.90
30280;DHT22;17097;50.916;5.344;2022-08-03T06:53:11;24.00;99.90
30280;DHT22;17097;50.916;5.344;2022-08-03T06:55:36;24.20;99.90
30280;DHT22;17097;50.916;5.344;2022-08-03T06:58:02;24.40;99.90
30280;DHT22;17097;50.916;5.344;2022-08-03T07:00:28;24.40;99.90
30280;DHT22;17097;50.916;5.344;2022-08-03T07:02:55;24.50;99.90
30280;DHT22;17097;50.916;5.344;2022-08-03T07:05:20;24.60;99.90
30280;DHT22;17097;50.916;5.344;2022-08-03T07:07:46;24.60;99.90
30280;DHT22;17097;50.916;5.344;2022-08-03T07:10:12;24.60;99.90
30280;DHT22;17097;50.916;5.344;2022-08-03T07:12:38;24.70;99.90
30280;DHT22;17097;50.916;5.344;2022-08-03T07:15:05;24.70;99.90
30280;DHT22;17097;50.916;5.344;2022-08-03T07:17:32;24.80;99.90
30280;DHT22;17097;50.916;5.344;2022-08-03T07:19:59;25.00;99.90
30280;DHT22;17097;50.916;5.344;2022-08-03T07:22:25;25.10;99.90
30280;DHT22;17097;50.916;5.344;2022-08-03T07:24:51;25.20;99.90
30280;DHT22;17097;50.916;5.344;2022-08-03T07:27:16;25.10;99.90
30280;DHT22;17097;50.916;5.344;2022-08-03T07:29:42;25.20;99.90
30280;DHT22;17097;50.916;5.344;2022-08-03T07:32:08;25.20;99.90
30280;DHT22;17097;50.916;5.344;2022-08-03T07:34:33;25.40;99.90
30280;DHT22;17097;50.916;5.344;2022-08-03T07:36:59;25.50;99.90
30280;DHT22;17097;50.916;5.344;2022-08-03T07:39:24;25.70;99.90
30280;DHT22;17097;50.916;5.344;2022-08-03T07:41:50;25.80;99.90
30280;DHT22;17097;50.916;5.344;2022-08-03T07:44:17;25.80;99.90
30280;DHT22;17097;50.916;5.344;2022-08-03T07:46:43;26.00;99.90
30280;DHT22;17097;50.916;5.344;2022-08-03T07:49:09;26.00;99.90
30280;DHT22;17097;50.916;5.344;2022-08-03T07:51:34;26.00;99.90
30280;DHT22;17097;50.916;5.344;2022-08-03T07:54:00;26.00;99.90
30280;DHT22;17097;50.916;5.344;2022-08-03T07:56:26;26.10;99.90
30280;DHT22;17097;50.916;5.344;2022-08-03T07:58:53;26.20;99.90
30280;DHT22;17097;50.916;5.344;2022-08-03T08:01:18;26.50;99.90
30280;DHT22;17097;50.916;5.344;2022-08-03T08:03:45;26.50;99.90
30280;DHT22;17097;50.916;5.344;2022-08-03T08:06:11;26.40;99.90
30280;DHT22;17097;50.916;5.344;2022-08-03T08:08:38;26.50;99.90
30280;DHT22;17097;50.916;5.344;2022-08-03T08:11:04;26.60;99.90
30280;DHT22;17097;50.916;5.344;2022-08-03T08:13:29;26.60;99.90
30280;DHT22;17097;50.916;5.344;2022-08-03T08:15:55;26.50;99.90
30280;DHT22;17097;50.916;5.344;2022-08-03T08:18:21;26.70;99.90
30280;DHT22;17097;50.916;5.344;2022-08-03T08:20:48;26.80;99.90
30280;DHT22;17097;50.916;5.344;2022-08-03T08:23:15;26.70;99.90
30280;DHT22;17097;50.916;5.344;2022-08-03T08:25:47;26.80;99.90
30280;DHT22;17097;50.916;5.344;2022-08-03T08:28:13;26.90;99.90
30280;DHT22;17097;50.916;5.344;2022-08-03T08:30:38;27.00;99.90
30280;DHT22;17097;50.916;5.344;2022-08-03T08:33:04;27.10;99.90
30280;DHT22;17097;50.916;5.344;2022-08-03T08:35:30;27.30;99.90
30280;DHT22;17097;50.916;5.344;2022-08-03T08:37:55;27.30;99.90
30280;DHT22;17097;50.916;5.344;2022-08-03T08:40:24;27.30;99.90
30280;DHT22;17097;50.916;5.344;2022-08-03T08:42:51;27.40;99.90
30280;DHT22;17097;50.916;5.344;2022-08-03T08:45:17;27.60;99.90
30280;DHT22;17097;50.916;5.344;2022-08-03T08:47:45;27.70;99.90
30280;DHT22;17097;50.916;5.344;2022-08-03T08:50:11;27.80;99.90
30280;DHT22;17097;50.916;5.344;2022-08-03T08:52:39;28.00;99.90
30280;DHT22;17097;50.916;5.344;2022-08-03T08:55:08;28.50;99.90
30280;DHT22;17097;50.916;5.344;2022-08-03T08:57:36;29.10;99.10
30280;DHT22;17097;50.916;5.344;2022-08-03T09:00:07;29.60;98.00
30280;DHT22;17097;50.916;5.344;2022-08-03T09:02:35;30.40;96.40
30280;DHT22;17097;50.916;5.344;2022-08-03T09:05:01;30.70;95.60
30280;DHT22;17097;50.916;5.344;2022-08-03T09:07:28;31.00;94.30
30280;DHT22;17097;50.916;5.344;2022-08-03T09:09:54;31.60;92.80
30280;DHT22;17097;50.916;5.344;2022-08-03T09:12:20;32.40;91.30
30280;DHT22;17097;50.916;5.344;2022-08-03T09:14:46;32.90;90.00
30280;DHT22;17097;50.916;5.344;2022-08-03T09:17:11;33.90;85.30
30280;DHT22;17097;50.916;5.344;2022-08-03T09:19:37;34.40;83.30
30280;DHT22;17097;50.916;5.344;2022-08-03T09:24:37;35.30;77.30
30280;DHT22;17097;50.916;5.344;2022-08-03T09:27:10;35.90;75.80
30280;DHT22;17097;50.916;5.344;2022-08-03T09:29:41;36.40;72.60
30280;DHT22;17097;50.916;5.344;2022-08-03T09:32:11;36.50;71.10
30280;DHT22;17097;50.916;5.344;2022-08-03T09:34:37;36.60;69.90
30280;DHT22;17097;50.916;5.344;2022-08-03T09:37:12;36.70;68.60
30280;DHT22;17097;50.916;5.344;2022-08-03T09:39:39;37.10;67.70
30280;DHT22;17097;50.916;5.344;2022-08-03T09:44:38;37.20;65.30
30280;DHT22;17097;50.916;5.344;2022-08-03T09:47:06;37.30;64.30
30280;DHT22;17097;50.916;5.344;2022-08-03T09:49:32;37.40;63.80
30280;DHT22;17097;50.916;5.344;2022-08-03T09:52:11;37.80;62.60
30280;DHT22;17097;50.916;5.344;2022-08-03T09:54:37;37.20;62.40
30280;DHT22;17097;50.916;5.344;2022-08-03T09:57:03;37.50;61.70
30280;DHT22;17097;50.916;5.344;2022-08-03T09:59:30;37.40;62.20
30280;DHT22;17097;50.916;5.344;2022-08-03T10:01:57;37.40;62.80
30280;DHT22;17097;50.916;5.344;2022-08-03T10:04:24;37.60;62.00
30280;DHT22;17097;50.916;5.344;2022-08-03T10:07:06;38.20;60.30
30280;DHT22;17097;50.916;5.344;2022-08-03T10:09:34;38.20;59.70
30280;DHT22;17097;50.916;5.344;2022-08-03T10:12:10;38.80;58.90
30280;DHT22;17097;50.916;5.344;2022-08-03T10:14:41;38.40;58.60
30280;DHT22;17097;50.916;5.344;2022-08-03T10:17:09;39.20;57.50
30280;DHT22;17097;50.916;5.344;2022-08-03T10:19:35;38.70;57.60
30280;DHT22;17097;50.916;5.344;2022-08-03T10:24:40;38.90;56.80
30280;DHT22;17097;50.916;5.344;2022-08-03T10:27:10;39.00;57.20
30280;DHT22;17097;50.916;5.344;2022-08-03T10:29:39;39.00;56.90
30280;DHT22;17097;50.916;5.344;2022-08-03T10:32:17;39.20;56.70
30280;DHT22;17097;50.916;5.344;2022-08-03T10:34:44;39.40;56.60
30280;DHT22;17097;50.916;5.344;2022-08-03T10:37:11;39.60;55.60
30280;DHT22;17097;50.916;5.344;2022-08-03T10:39:38;39.30;55.60
30280;DHT22;17097;50.916;5.344;2022-08-03T10:42:24;38.90;55.80
30280;DHT22;17097;50.916;5.344;2022-08-03T10:44:59;38.90;56.00
30280;DHT22;17097;50.916;5.344;2022-08-03T10:47:28;39.00;55.30
30280;DHT22;17097;50.916;5.344;2022-08-03T10:49:53;39.30;55.50
30280;DHT22;17097;50.916;5.344;2022-08-03T10:52:19;39.00;55.70
30280;DHT22;17097;50.916;5.344;2022-08-03T10:54:45;39.00;55.60
30280;DHT22;17097;50.916;5.344;2022-08-03T10:57:50;38.90;56.50
30280;DHT22;17097;50.916;5.344;2022-08-03T11:00:22;38.70;56.70
30280;DHT22;17097;50.916;5.344;2022-08-03T11:05:41;38.00;57.60
30280;DHT22;17097;50.916;5.344;2022-08-03T11:10:48;38.00;57.30
30280;DHT22;17097;50.916;5.344;2022-08-03T11:13:16;38.20;57.30
30280;DHT22;17097;50.916;5.344;2022-08-03T11:15:44;38.00;57.20
30280;DHT22;17097;50.916;5.344;2022-08-03T11:18:12;38.10;58.60
30280;DHT22;17097;50.916;5.344;2022-08-03T11:23:10;38.30;57.10
30280;DHT22;17097;50.916;5.344;2022-08-03T11:26:11;38.20;57.00
30280;DHT22;17097;50.916;5.344;2022-08-03T11:28:37;38.50;57.20
30280;DHT22;17097;50.916;5.344;2022-08-03T11:34:08;37.50;57.50
30280;DHT22;17097;50.916;5.344;2022-08-03T11:39:38;37.60;58.10
30280;DHT22;17097;50.916;5.344;2022-08-03T11:45:00;37.70;58.40
30280;DHT22;17097;50.916;5.344;2022-08-03T11:47:35;37.60;58.60
30280;DHT22;17097;50.916;5.344;2022-08-03T11:50:02;37.50;58.20
30280;DHT22;17097;50.916;5.344;2022-08-03T11:52:38;37.30;58.20
30280;DHT22;17097;50.916;5.344;2022-08-03T11:55:08;37.10;58.80
30280;DHT22;17097;50.916;5.344;2022-08-03T11:57:34;36.90;58.90
30280;DHT22;17097;50.916;5.344;2022-08-03T12:00:00;36.90;58.90
30280;DHT22;17097;50.916;5.344;2022-08-03T12:02:26;37.20;58.80
30280;DHT22;17097;50.916;5.344;2022-08-03T12:04:56;36.80;59.70
30280;DHT22;17097;50.916;5.344;2022-08-03T12:07:27;37.10;59.00
30280;DHT22;17097;50.916;5.344;2022-08-03T12:10:12;37.20;59.40
30280;DHT22;17097;50.916;5.344;2022-08-03T12:12:40;37.20;59.50
30280;DHT22;17097;50.916;5.344;2022-08-03T12:15:07;36.90;59.70
30280;DHT22;17097;50.916;5.344;2022-08-03T12:19:59;36.20;60.00
30280;DHT22;17097;50.916;5.344;2022-08-03T12:24:57;36.60;59.50
30280;DHT22;17097;50.916;5.344;2022-08-03T12:27:24;36.50;59.00
30280;DHT22;17097;50.916;5.344;2022-08-03T12:29:53;36.70;59.20
30280;DHT22;17097;50.916;5.344;2022-08-03T12:32:18;36.40;60.50
30280;DHT22;17097;50.916;5.344;2022-08-03T12:34:48;36.20;60.40
30280;DHT22;17097;50.916;5.344;2022-08-03T12:37:18;36.40;59.50
30280;DHT22;17097;50.916;5.344;2022-08-03T12:39:52;36.40;59.40
30280;DHT22;17097;50.916;5.344;2022-08-03T12:42:18;36.10;59.40
30280;DHT22;17097;50.916;5.344;2022-08-03T12:44:44;36.10;60.40
30280;DHT22;17097;50.916;5.344;2022-08-03T12:47:11;36.40;59.80
30280;DHT22;17097;50.916;5.344;2022-08-03T12:49:52;36.60;62.00
30280;DHT22;17097;50.916;5.344;2022-08-03T12:52:19;36.80;59.30
30280;DHT22;17097;50.916;5.344;2022-08-03T12:54:56;36.50;60.00
30280;DHT22;17097;50.916;5.344;2022-08-03T12:57:22;36.10;59.90
30280;DHT22;17097;50.916;5.344;2022-08-03T12:59:48;36.30;60.10
30280;DHT22;17097;50.916;5.344;2022-08-03T13:02:21;36.30;59.70
30280;DHT22;17097;50.916;5.344;2022-08-03T13:04:48;36.10;60.40
30280;DHT22;17097;50.916;5.344;2022-08-03T13:07:15;36.30;59.60
30280;DHT22;17097;50.916;5.344;2022-08-03T13:09:42;36.20;59.20
30280;DHT22;17097;50.916;5.344;2022-08-03T13:12:11;36.20;60.60
30280;DHT22;17097;50.916;5.344;2022-08-03T13:14:37;36.20;60.60
30280;DHT22;17097;50.916;5.344;2022-08-03T13:17:04;36.30;59.40
30280;DHT22;17097;50.916;5.344;2022-08-03T13:19:32;36.30;60.00
30280;DHT22;17097;50.916;5.344;2022-08-03T13:21:58;36.10;60.10
30280;DHT22;17097;50.916;5.344;2022-08-03T13:24:24;36.30;60.90
30280;DHT22;17097;50.916;5.344;2022-08-03T13:26:50;36.40;60.20
30280;DHT22;17097;50.916;5.344;2022-08-03T13:29:16;36.80;58.50
30280;DHT22;17097;50.916;5.344;2022-08-03T13:31:42;36.90;58.90
30280;DHT22;17097;50.916;5.344;2022-08-03T13:34:07;37.20;58.00
30280;DHT22;17097;50.916;5.344;2022-08-03T13:36:33;37.40;57.90
30280;DHT22;17097;50.916;5.344;2022-08-03T13:38:59;37.20;58.40
30280;DHT22;17097;50.916;5.344;2022-08-03T13:41:25;36.90;58.50
30280;DHT22;17097;50.916;5.344;2022-08-03T13:43:50;37.20;58.50
30280;DHT22;17097;50.916;5.344;2022-08-03T13:46:16;37.10;59.40
30280;DHT22;17097;50.916;5.344;2022-08-03T13:48:42;37.20;58.40
30280;DHT22;17097;50.916;5.344;2022-08-03T13:51:07;37.20;58.00
30280;DHT22;17097;50.916;5.344;2022-08-03T13:53:33;36.90;58.50
30280;DHT22;17097;50.916;5.344;2022-08-03T13:55:58;36.90;58.50
30280;DHT22;17097;50.916;5.344;2022-08-03T13:58:24;37.20;58.00
30280;DHT22;17097;50.916;5.344;2022-08-03T14:00:50;37.40;58.20
30280;DHT22;17097;50.916;5.344;2022-08-03T14:03:15;37.50;57.40
30280;DHT22;17097;50.916;5.344;2022-08-03T14:05:44;37.60;57.10
30280;DHT22;17097;50.916;5.344;2022-08-03T14:08:10;37.60;57.50
30280;DHT22;17097;50.916;5.344;2022-08-03T14:10:38;37.70;56.30
30280;DHT22;17097;50.916;5.344;2022-08-03T14:13:04;37.70;57.00
30280;DHT22;17097;50.916;5.344;2022-08-03T14:15:30;37.70;56.30
30280;DHT22;17097;50.916;5.344;2022-08-03T14:17:56;37.50;56.70
30280;DHT22;17097;50.916;5.344;2022-08-03T14:20:21;37.50;56.90
30280;DHT22;17097;50.916;5.344;2022-08-03T14:22:47;37.60;55.50
30280;DHT22;17097;50.916;5.344;2022-08-03T14:25:13;37.60;55.40
30280;DHT22;17097;50.916;5.344;2022-08-03T14:27:38;37.70;55.50
30280;DHT22;17097;50.916;5.344;2022-08-03T14:30:04;37.90;55.80
30280;DHT22;17097;50.916;5.344;2022-08-03T14:32:30;37.90;54.80
30280;DHT22;17097;50.916;5.344;2022-08-03T14:34:56;37.70;55.50
30280;DHT22;17097;50.916;5.344;2022-08-03T14:37:21;37.60;55.40
30280;DHT22;17097;50.916;5.344;2022-08-03T14:39:47;37.30;56.00
30280;DHT22;17097;50.916;5.344;2022-08-03T14:42:13;36.80;56.80
30280;DHT22;17097;50.916;5.344;2022-08-03T14:44:40;36.60;56.90
30280;DHT22;17097;50.916;5.344;2022-08-03T14:47:05;36.40;57.20
30280;DHT22;17097;50.916;5.344;2022-08-03T14:49:31;36.30;57.80
30280;DHT22;17097;50.916;5.344;2022-08-03T14:51:57;36.10;58.20
30280;DHT22;17097;50.916;5.344;2022-08-03T14:54:22;36.00;57.90
30280;DHT22;17097;50.916;5.344;2022-08-03T14:56:48;36.10;57.50
30280;DHT22;17097;50.916;5.344;2022-08-03T14:59:14;36.10;57.20
30280;DHT22;17097;50.916;5.344;2022-08-03T15:01:39;36.30;57.30
30280;DHT22;17097;50.916;5.344;2022-08-03T15:04:05;36.40;56.70
30280;DHT22;17097;50.916;5.344;2022-08-03T15:06:30;36.40;56.70
30280;DHT22;17097;50.916;5.344;2022-08-03T15:08:56;36.60;56.60
30280;DHT22;17097;50.916;5.344;2022-08-03T15:11:22;36.80;56.50
30280;DHT22;17097;50.916;5.344;2022-08-03T15:13:47;37.10;55.80
30280;DHT22;17097;50.916;5.344;2022-08-03T15:16:13;37.20;55.50
30280;DHT22;17097;50.916;5.344;2022-08-03T15:18:38;37.20;55.70
30280;DHT22;17097;50.916;5.344;2022-08-03T15:21:05;37.10;55.50
30280;DHT22;17097;50.916;5.344;2022-08-03T15:23:31;36.90;55.80
30280;DHT22;17097;50.916;5.344;2022-08-03T15:25:56;36.80;56.70
30280;DHT22;17097;50.916;5.344;2022-08-03T15:28:22;36.90;57.50
30280;DHT22;17097;50.916;5.344;2022-08-03T15:30:48;37.20;56.40
30280;DHT22;17097;50.916;5.344;2022-08-03T15:33:15;37.40;55.50
30280;DHT22;17097;50.916;5.344;2022-08-03T15:35:41;37.30;56.00
30280;DHT22;17097;50.916;5.344;2022-08-03T15:38:07;37.30;56.30
30280;DHT22;17097;50.916;5.344;2022-08-03T15:40:33;37.40;55.80
30280;DHT22;17097;50.916;5.344;2022-08-03T15:42:59;36.90;56.10
30280;DHT22;17097;50.916;5.344;2022-08-03T15:45:26;36.90;56.00
30280;DHT22;17097;50.916;5.344;2022-08-03T15:47:52;37.10;56.10
30280;DHT22;17097;50.916;5.344;2022-08-03T15:50:18;37.00;55.50
30280;DHT22;17097;50.916;5.344;2022-08-03T15:52:43;37.40;55.20
30280;DHT22;17097;50.916;5.344;2022-08-03T15:55:09;37.60;54.20
30280;DHT22;17097;50.916;5.344;2022-08-03T15:57:35;37.50;53.90
30280;DHT22;17097;50.916;5.344;2022-08-03T16:00:04;37.30;55.60
30280;DHT22;17097;50.916;5.344;2022-08-03T16:02:30;37.20;55.10
30280;DHT22;17097;50.916;5.344;2022-08-03T16:04:57;37.20;55.10
30280;DHT22;17097;50.916;5.344;2022-08-03T16:07:22;37.10;55.10
30280;DHT22;17097;50.916;5.344;2022-08-03T16:10:07;36.90;54.80
30280;DHT22;17097;50.916;5.344;2022-08-03T16:12:32;36.90;54.80